sensor_id;sensor_type;location;lat;lon;timestamp;temperature;humidity
59301;DHT22;45073;52.740;6.784;2023-04-03T00:02:11;4.80;76.90
59301;DHT22;45073;52.740;6.784;2023-04-03T00:04:36;4.80;77.00
59301;DHT22;45073;52.740;6.784;2023-04-03T00:07:02;4.80;77.00
59301;DHT22;45073;52.740;6.784;2023-04-03T00:09:27;4.80;77.40
59301;DHT22;45073;52.740;6.784;2023-04-03T00:11:53;4.70;77.90
59301;DHT22;45073;52.740;6.784;2023-04-03T00:14:19;4.80;77.60
59301;DHT22;45073;52.740;6.784;2023-04-03T00:16:44;4.70;77.70
59301;DHT22;45073;52.740;6.784;2023-04-03T00:19:10;4.70;77.80
59301;DHT22;45073;52.740;6.784;2023-04-03T00:21:37;4.60;78.00
59301;DHT22;45073;52.740;6.784;2023-04-03T00:24:03;4.60;78.10
59301;DHT22;45073;52.740;6.784;2023-04-03T00:26:28;4.60;78.20
59301;DHT22;45073;52.740;6.784;2023-04-03T00:28:54;4.60;78.50
59301;DHT22;45073;52.740;6.784;2023-04-03T00:31:20;4.60;79.20
59301;DHT22;45073;52.740;6.784;2023-04-03T00:33:45;4.50;78.80
59301;DHT22;45073;52.740;6.784;2023-04-03T00:36:12;4.50;79.70
59301;DHT22;45073;52.740;6.784;2023-04-03T00:38:38;4.50;79.40
59301;DHT22;45073;52.740;6.784;2023-04-03T00:41:04;4.50;79.40
59301;DHT22;45073;52.740;6.784;2023-04-03T00:43:30;4.40;79.80
59301;DHT22;45073;52.740;6.784;2023-04-03T00:45:57;4.40;79.90
59301;DHT22;45073;52.740;6.784;2023-04-03T00:48:30;4.40;80.10
59301;DHT22;45073;52.740;6.784;2023-04-03T00:50:57;4.40;80.00
59301;DHT22;45073;52.740;6.784;2023-04-03T00:53:26;4.40;80.00
59301;DHT22;45073;52.740;6.784;2023-04-03T00:55:54;4.30;80.70
59301;DHT22;45073;52.740;6.784;2023-04-03T00:58:25;4.30;80.60
59301;DHT22;45073;52.740;6.784;2023-04-03T01:00:55;4.30;81.40
59301;DHT22;45073;52.740;6.784;2023-04-03T01:03:23;4.30;81.50
59301;DHT22;45073;52.740;6.784;2023-04-03T01:05:49;4.30;81.30
59301;DHT22;45073;52.740;6.784;2023-04-03T01:08:15;4.20;81.20
59301;DHT22;45073;52.740;6.784;2023-04-03T01:10:41;4.20;81.80
59301;DHT22;45073;52.740;6.784;2023-04-03T01:13:31;4.20;82.30
59301;DHT22;45073;52.740;6.784;2023-04-03T01:16:01;4.10;82.70
59301;DHT22;45073;52.740;6.784;2023-04-03T01:18:26;4.10;83.30
59301;DHT22;45073;52.740;6.784;2023-04-03T01:23:44;4.10;84.60
59301;DHT22;45073;52.740;6.784;2023-04-03T01:26:12;4.00;84.80
59301;DHT22;45073;52.740;6.784;2023-04-03T01:28:38;4.00;84.60
59301;DHT22;45073;52.740;6.784;2023-04-03T01:31:20;4.00;84.60
59301;DHT22;45073;52.740;6.784;2023-04-03T01:33:47;4.00;85.20
59301;DHT22;45073;52.740;6.784;2023-04-03T01:36:20;4.00;85.60
59301;DHT22;45073;52.740;6.784;2023-04-03T01:38:47;3.90;86.50
59301;DHT22;45073;52.740;6.784;2023-04-03T01:41:12;3.90;86.70
59301;DHT22;45073;52.740;6.784;2023-04-03T01:43:38;3.90;87.20
59301;DHT22;45073;52.740;6.784;2023-04-03T01:46:03;3.90;88.00
59301;DHT22;45073;52.740;6.784;2023-04-03T01:48:29;3.80;88.30
59301;DHT22;45073;52.740;6.784;2023-04-03T01:50:55;3.80;88.80
59301;DHT22;45073;52.740;6.784;2023-04-03T01:53:21;3.80;88.40
59301;DHT22;45073;52.740;6.784;2023-04-03T01:55:46;3.80;89.30
59301;DHT22;45073;52.740;6.784;2023-04-03T01:58:12;3.80;89.80
59301;DHT22;45073;52.740;6.784;2023-04-03T02:00:38;3.70;90.30
59301;DHT22;45073;52.740;6.784;2023-04-03T02:03:03;3.70;89.20
59301;DHT22;45073;52.740;6.784;2023-04-03T02:05:29;3.70;89.50
59301;DHT22;45073;52.740;6.784;2023-04-03T02:07:54;3.70;90.20
59301;DHT22;45073;52.740;6.784;2023-04-03T02:10:20;3.70;90.00
59301;DHT22;45073;52.740;6.784;2023-04-03T02:12:46;3.60;90.40
59301;DHT22;45073;52.740;6.784;2023-04-03T02:15:12;3.60;90.80
59301;DHT22;45073;52.740;6.784;2023-04-03T02:17:37;3.60;91.10
59301;DHT22;45073;52.740;6.784;2023-04-03T02:20:03;3.60;91.00
59301;DHT22;45073;52.740;6.784;2023-04-03T02:22:29;3.50;91.40
59301;DHT22;45073;52.740;6.784;2023-04-03T02:24:55;3.50;92.10
59301;DHT22;45073;52.740;6.784;2023-04-03T02:27:20;3.50;91.60
59301;DHT22;45073;52.740;6.784;2023-04-03T02:29:46;3.50;92.40
59301;DHT22;45073;52.740;6.784;2023-04-03T02:32:11;3.50;92.40
59301;DHT22;45073;52.740;6.784;2023-04-03T02:34:37;3.50;91.70
59301;DHT22;45073;52.740;6.784;2023-04-03T02:37:03;3.50;92.10
59301;DHT22;45073;52.740;6.784;2023-04-03T02:39:28;3.40;91.90
59301;DHT22;45073;52.740;6.784;2023-04-03T02:41:54;3.40;92.40
59301;DHT22;45073;52.740;6.784;2023-04-03T02:44:19;3.40;92.90
59301;DHT22;45073;52.740;6.784;2023-04-03T02:46:45;3.30;94.00
59301;DHT22;45073;52.740;6.784;2023-04-03T02:49:10;3.30;93.60
59301;DHT22;45073;52.740;6.784;2023-04-03T02:51:36;3.30;93.10
59301;DHT22;45073;52.740;6.784;2023-04-03T02:54:02;3.30;93.70
59301;DHT22;45073;52.740;6.784;2023-04-03T02:56:27;3.20;93.10
59301;DHT22;45073;52.740;6.784;2023-04-03T02:58:53;3.30;93.10
59301;DHT22;45073;52.740;6.784;2023-04-03T03:01:19;3.20;94.70
59301;DHT22;45073;52.740;6.784;2023-04-03T03:03:44;3.20;94.40
59301;DHT22;45073;52.740;6.784;2023-04-03T03:06:13;3.20;94.70
59301;DHT22;45073;52.740;6.784;2023-04-03T03:08:39;3.10;94.80
59301;DHT22;45073;52.740;6.784;2023-04-03T03:11:05;3.10;94.70
59301;DHT22;45073;52.740;6.784;2023-04-03T03:13:31;3.10;95.10
59301;DHT22;45073;52.740;6.784;2023-04-03T03:15:57;3.00;95.60
59301;DHT22;45073;52.740;6.784;2023-04-03T03:18:22;3.00;96.40
59301;DHT22;45073;52.740;6.784;2023-04-03T03:20:52;3.00;96.50
59301;DHT22;45073;52.740;6.784;2023-04-03T03:23:18;3.00;96.30
59301;DHT22;45073;52.740;6.784;2023-04-03T03:25:44;3.00;96.50
59301;DHT22;45073;52.740;6.784;2023-04-03T03:28:09;2.90;96.30
59301;DHT22;45073;52.740;6.784;2023-04-03T03:30:35;2.90;96.20
59301;DHT22;45073;52.740;6.784;2023-04-03T03:33:01;2.90;96.60
59301;DHT22;45073;52.740;6.784;2023-04-03T03:35:26;2.80;96.80
59301;DHT22;45073;52.740;6.784;2023-04-03T03:37:52;2.80;97.60
59301;DHT22;45073;52.740;6.784;2023-04-03T03:40:18;2.80;97.00
59301;DHT22;45073;52.740;6.784;2023-04-03T03:42:43;2.70;97.30
59301;DHT22;45073;52.740;6.784;2023-04-03T03:45:09;2.70;97.20
59301;DHT22;45073;52.740;6.784;2023-04-03T03:47:35;2.70;97.50
59301;DHT22;45073;52.740;6.784;2023-04-03T03:50:02;2.70;98.10
59301;DHT22;45073;52.740;6.784;2023-04-03T03:52:27;2.70;97.70
59301;DHT22;45073;52.740;6.784;2023-04-03T03:54:53;2.60;97.60
59301;DHT22;45073;52.740;6.784;2023-04-03T03:57:19;2.60;96.90
59301;DHT22;45073;52.740;6.784;2023-04-03T03:59:44;2.60;98.50
59301;DHT22;45073;52.740;6.784;2023-04-03T04:02:10;2.60;99.20
59301;DHT22;45073;52.740;6.784;2023-04-03T04:04:37;2.60;99.50
59301;DHT22;45073;52.740;6.784;2023-04-03T04:07:03;2.50;99.80
59301;DHT22;45073;52.740;6.784;2023-04-03T04:09:28;2.60;98.80
59301;DHT22;45073;52.740;6.784;2023-04-03T04:11:54;2.50;97.60
59301;DHT22;45073;52.740;6.784;2023-04-03T04:14:19;2.50;99.20
59301;DHT22;45073;52.740;6.784;2023-04-03T04:16:48;2.50;98.70
59301;DHT22;45073;52.740;6.784;2023-04-03T04:19:14;2.50;99.80
59301;DHT22;45073;52.740;6.784;2023-04-03T04:21:40;2.40;99.70
59301;DHT22;45073;52.740;6.784;2023-04-03T04:24:07;2.40;99.30
59301;DHT22;45073;52.740;6.784;2023-04-03T04:26:33;2.40;99.60
59301;DHT22;45073;52.740;6.784;2023-04-03T04:28:59;2.40;98.40
59301;DHT22;45073;52.740;6.784;2023-04-03T04:31:25;2.40;98.90
59301;DHT22;45073;52.740;6.784;2023-04-03T04:33:51;2.30;99.20
59301;DHT22;45073;52.740;6.784;2023-04-03T04:36:16;2.30;99.90
59301;DHT22;45073;52.740;6.784;2023-04-03T04:38:43;2.30;99.90
59301;DHT22;45073;52.740;6.784;2023-04-03T04:41:09;2.30;99.90
59301;DHT22;45073;52.740;6.784;2023-04-03T04:43:34;2.30;99.90
59301;DHT22;45073;52.740;6.784;2023-04-03T04:46:05;2.30;99.60
59301;DHT22;45073;52.740;6.784;2023-04-03T04:48:31;2.20;99.90
59301;DHT22;45073;52.740;6.784;2023-04-03T04:50:57;2.20;99.90
59301;DHT22;45073;52.740;6.784;2023-04-03T04:53:22;2.20;99.90
59301;DHT22;45073;52.740;6.784;2023-04-03T04:55:48;2.20;99.70
59301;DHT22;45073;52.740;6.784;2023-04-03T04:58:14;2.20;99.70
59301;DHT22;45073;52.740;6.784;2023-04-03T05:00:40;2.10;99.60
59301;DHT22;45073;52.740;6.784;2023-04-03T05:03:05;2.10;98.90
59301;DHT22;45073;52.740;6.784;2023-04-03T05:05:31;2.10;99.10
59301;DHT22;45073;52.740;6.784;2023-04-03T05:07:56;2.10;99.20
59301;DHT22;45073;52.740;6.784;2023-04-03T05:10:22;2.10;99.70
59301;DHT22;45073;52.740;6.784;2023-04-03T05:12:47;2.00;99.30
59301;DHT22;45073;52.740;6.784;2023-04-03T05:15:13;2.00;99.90
59301;DHT22;45073;52.740;6.784;2023-04-03T05:17:39;2.00;99.90
59301;DHT22;45073;52.740;6.784;2023-04-03T05:20:05;2.00;99.50
59301;DHT22;45073;52.740;6.784;2023-04-03T05:22:31;2.00;99.90
59301;DHT22;45073;52.740;6.784;2023-04-03T05:24:57;2.00;99.90
59301;DHT22;45073;52.740;6.784;2023-04-03T05:27:22;1.90;99.90
59301;DHT22;45073;52.740;6.784;2023-04-03T05:29:49;2.00;99.90
59301;DHT22;45073;52.740;6.784;2023-04-03T05:32:15;1.90;99.90
59301;DHT22;45073;52.740;6.784;2023-04-03T05:34:41;2.00;99.90
59301;DHT22;45073;52.740;6.784;2023-04-03T05:37:07;2.00;99.90
59301;DHT22;45073;52.740;6.784;2023-04-03T05:39:33;2.00;99.90
59301;DHT22;45073;52.740;6.784;2023-04-03T05:41:59;2.00;99.90
59301;DHT22;45073;52.740;6.784;2023-04-03T05:44:25;2.00;99.90
59301;DHT22;45073;52.740;6.784;2023-04-03T05:46:50;2.00;99.90
59301;DHT22;45073;52.740;6.784;2023-04-03T05:49:16;2.10;99.90
59301;DHT22;45073;52.740;6.784;2023-04-03T05:51:42;2.00;99.90
59301;DHT22;45073;52.740;6.784;2023-04-03T05:54:19;2.10;99.90
59301;DHT22;45073;52.740;6.784;2023-04-03T05:56:45;2.10;99.90
59301;DHT22;45073;52.740;6.784;2023-04-03T05:59:11;2.10;99.80
59301;DHT22;45073;52.740;6.784;2023-04-03T06:01:37;2.20;99.90
59301;DHT22;45073;52.740;6.784;2023-04-03T06:04:03;2.10;99.90
59301;DHT22;45073;52.740;6.784;2023-04-03T06:06:46;2.20;99.90
59301;DHT22;45073;52.740;6.784;2023-04-03T06:09:13;2.20;99.90
59301;DHT22;45073;52.740;6.784;2023-04-03T06:11:42;2.20;99.90
59301;DHT22;45073;52.740;6.784;2023-04-03T06:14:08;2.30;99.90
59301;DHT22;45073;52.740;6.784;2023-04-03T06:16:34;2.30;99.90
59301;DHT22;45073;52.740;6.784;2023-04-03T06:19:00;2.40;99.90
59301;DHT22;45073;52.740;6.784;2023-04-03T06:21:26;2.40;99.90
59301;DHT22;45073;52.740;6.784;2023-04-03T06:23:52;2.40;99.90
59301;DHT22;45073;52.740;6.784;2023-04-03T06:26:17;2.50;99.60
59301;DHT22;45073;52.740;6.784;2023-04-03T06:28:43;2.50;99.90
59301;DHT22;45073;52.740;6.784;2023-04-03T06:31:09;2.50;99.90
59301;DHT22;45073;52.740;6.784;2023-04-03T06:33:34;2.60;99.90
59301;DHT22;45073;52.740;6.784;2023-04-03T06:36:03;2.60;99.90
59301;DHT22;45073;52.740;6.784;2023-04-03T06:38:29;2.70;99.90
59301;DHT22;45073;52.740;6.784;2023-04-03T06:40:56;2.70;99.90
59301;DHT22;45073;52.740;6.784;2023-04-03T06:43:22;2.80;99.90
59301;DHT22;45073;52.740;6.784;2023-04-03T06:45:48;2.80;99.70
59301;DHT22;45073;52.740;6.784;2023-04-03T06:48:13;2.90;99.60
59301;DHT22;45073;52.740;6.784;2023-04-03T06:50:39;2.90;99.90
59301;DHT22;45073;52.740;6.784;2023-04-03T06:53:05;2.90;99.50
59301;DHT22;45073;52.740;6.784;2023-04-03T06:55:32;3.00;99.30
59301;DHT22;45073;52.740;6.784;2023-04-03T06:57:58;3.00;99.00
59301;DHT22;45073;52.740;6.784;2023-04-03T07:00:24;3.10;99.20
59301;DHT22;45073;52.740;6.784;2023-04-03T07:02:50;3.20;99.40
59301;DHT22;45073;52.740;6.784;2023-04-03T07:05:17;3.30;99.30
59301;DHT22;45073;52.740;6.784;2023-04-03T07:07:43;3.30;98.90
59301;DHT22;45073;52.740;6.784;2023-04-03T07:10:09;3.40;98.70
59301;DHT22;45073;52.740;6.784;2023-04-03T07:12:35;3.40;98.50
59301;DHT22;45073;52.740;6.784;2023-04-03T07:15:01;3.50;98.10
59301;DHT22;45073;52.740;6.784;2023-04-03T07:17:27;3.50;97.80
59301;DHT22;45073;52.740;6.784;2023-04-03T07:19:53;3.60;98.20
59301;DHT22;45073;52.740;6.784;2023-04-03T07:22:18;3.70;97.90
59301;DHT22;45073;52.740;6.784;2023-04-03T07:24:44;3.70;97.40
59301;DHT22;45073;52.740;6.784;2023-04-03T07:27:09;3.80;97.00
59301;DHT22;45073;52.740;6.784;2023-04-03T07:29:38;3.90;97.20
59301;DHT22;45073;52.740;6.784;2023-04-03T07:32:04;4.00;96.70
59301;DHT22;45073;52.740;6.784;2023-04-03T07:34:31;4.00;96.30
59301;DHT22;45073;52.740;6.784;2023-04-03T07:36:57;4.10;95.90
59301;DHT22;45073;52.740;6.784;2023-04-03T07:39:23;4.20;95.70
59301;DHT22;45073;52.740;6.784;2023-04-03T07:41:48;4.30;95.70
59301;DHT22;45073;52.740;6.784;2023-04-03T07:44:14;4.30;95.30
59301;DHT22;45073;52.740;6.784;2023-04-03T07:46:39;4.40;94.90
59301;DHT22;45073;52.740;6.784;2023-04-03T07:49:06;4.50;94.70
59301;DHT22;45073;52.740;6.784;2023-04-03T07:51:32;4.50;93.80
59301;DHT22;45073;52.740;6.784;2023-04-03T07:53:58;4.60;94.10
59301;DHT22;45073;52.740;6.784;2023-04-03T07:56:23;4.70;93.20
59301;DHT22;45073;52.740;6.784;2023-04-03T07:58:50;4.80;93.00
59301;DHT22;45073;52.740;6.784;2023-04-03T08:01:16;4.90;92.50
59301;DHT22;45073;52.740;6.784;2023-04-03T08:03:41;5.00;92.00
59301;DHT22;45073;52.740;6.784;2023-04-03T08:06:08;5.00;91.50
59301;DHT22;45073;52.740;6.784;2023-04-03T08:08:34;5.10;90.80
59301;DHT22;45073;52.740;6.784;2023-04-03T08:11:01;5.20;90.50
59301;DHT22;45073;52.740;6.784;2023-04-03T08:13:28;5.30;90.40
59301;DHT22;45073;52.740;6.784;2023-04-03T08:15:55;5.40;89.90
59301;DHT22;45073;52.740;6.784;2023-04-03T08:18:23;5.50;89.70
59301;DHT22;45073;52.740;6.784;2023-04-03T08:20:50;5.50;88.90
59301;DHT22;45073;52.740;6.784;2023-04-03T08:23:17;5.60;87.60
59301;DHT22;45073;52.740;6.784;2023-04-03T08:25:43;5.70;86.40
59301;DHT22;45073;52.740;6.784;2023-04-03T08:28:11;5.80;85.50
59301;DHT22;45073;52.740;6.784;2023-04-03T08:30:40;5.90;84.60
59301;DHT22;45073;52.740;6.784;2023-04-03T08:33:06;5.90;83.30
59301;DHT22;45073;52.740;6.784;2023-04-03T08:35:32;6.00;82.40
59301;DHT22;45073;52.740;6.784;2023-04-03T08:37:58;6.10;82.60
59301;DHT22;45073;52.740;6.784;2023-04-03T08:40:24;6.20;81.20
59301;DHT22;45073;52.740;6.784;2023-04-03T08:45:46;6.30;80.60
59301;DHT22;45073;52.740;6.784;2023-04-03T08:48:16;6.40;78.70
59301;DHT22;45073;52.740;6.784;2023-04-03T08:50:50;6.50;77.20
59301;DHT22;45073;52.740;6.784;2023-04-03T08:53:26;6.60;79.70
59301;DHT22;45073;52.740;6.784;2023-04-03T08:55:55;6.70;79.00
59301;DHT22;45073;52.740;6.784;2023-04-03T08:58:29;6.80;78.50
59301;DHT22;45073;52.740;6.784;2023-04-03T09:01:01;6.90;77.70
59301;DHT22;45073;52.740;6.784;2023-04-03T09:03:31;7.00;76.50
59301;DHT22;45073;52.740;6.784;2023-04-03T09:08:43;7.20;75.80
59301;DHT22;45073;52.740;6.784;2023-04-03T09:11:21;7.30;75.80
59301;DHT22;45073;52.740;6.784;2023-04-03T09:13:59;7.40;75.10
59301;DHT22;45073;52.740;6.784;2023-04-03T09:16:52;7.50;75.40
59301;DHT22;45073;52.740;6.784;2023-04-03T09:21:48;7.70;73.50
59301;DHT22;45073;52.740;6.784;2023-04-03T09:24:16;7.80;73.50
59301;DHT22;45073;52.740;6.784;2023-04-03T09:29:17;7.90;72.90
59301;DHT22;45073;52.740;6.784;2023-04-03T09:31:44;8.00;72.00
59301;DHT22;45073;52.740;6.784;2023-04-03T09:34:32;8.10;72.10
59301;DHT22;45073;52.740;6.784;2023-04-03T09:37:00;8.10;70.40
59301;DHT22;45073;52.740;6.784;2023-04-03T09:39:32;8.20;70.70
59301;DHT22;45073;52.740;6.784;2023-04-03T09:41:59;8.30;70.40
59301;DHT22;45073;52.740;6.784;2023-04-03T09:44:28;8.40;70.00
59301;DHT22;45073;52.740;6.784;2023-04-03T09:46:54;8.50;70.00
59301;DHT22;45073;52.740;6.784;2023-04-03T09:49:20;8.50;68.90
59301;DHT22;45073;52.740;6.784;2023-04-03T09:51:45;8.60;68.60
59301;DHT22;45073;52.740;6.784;2023-04-03T09:54:32;8.70;68.60
59301;DHT22;45073;52.740;6.784;2023-04-03T09:57:06;8.70;66.50
59301;DHT22;45073;52.740;6.784;2023-04-03T09:59:32;8.80;67.90
59301;DHT22;45073;52.740;6.784;2023-04-03T10:02:00;8.90;67.90
59301;DHT22;45073;52.740;6.784;2023-04-03T10:04:38;9.10;67.80
59301;DHT22;45073;52.740;6.784;2023-04-03T10:07:34;9.20;67.10
59301;DHT22;45073;52.740;6.784;2023-04-03T10:12:41;9.30;64.80
59301;DHT22;45073;52.740;6.784;2023-04-03T10:15:16;9.40;65.60
59301;DHT22;45073;52.740;6.784;2023-04-03T10:18:05;9.50;65.30
59301;DHT22;45073;52.740;6.784;2023-04-03T10:20:48;9.60;64.30
59301;DHT22;45073;52.740;6.784;2023-04-03T10:23:21;9.70;64.70
59301;DHT22;45073;52.740;6.784;2023-04-03T10:31:24;9.80;61.30
59301;DHT22;45073;52.740;6.784;2023-04-03T10:36:54;10.00;63.00
59301;DHT22;45073;52.740;6.784;2023-04-03T10:39:44;10.10;63.00
59301;DHT22;45073;52.740;6.784;2023-04-03T10:42:34;10.20;61.80
59301;DHT22;45073;52.740;6.784;2023-04-03T10:45:23;10.40;62.60
59301;DHT22;45073;52.740;6.784;2023-04-03T10:48:04;10.50;61.00
59301;DHT22;45073;52.740;6.784;2023-04-03T10:51:13;10.60;62.30
59301;DHT22;45073;52.740;6.784;2023-04-03T10:54:04;10.70;61.30
59301;DHT22;45073;52.740;6.784;2023-04-03T10:59:33;10.90;60.70
59301;DHT22;45073;52.740;6.784;2023-04-03T11:02:13;11.10;60.60
59301;DHT22;45073;52.740;6.784;2023-04-03T11:04:42;11.20;61.00
59301;DHT22;45073;52.740;6.784;2023-04-03T11:07:23;11.30;60.70
59301;DHT22;45073;52.740;6.784;2023-04-03T11:09:55;11.40;60.50
59301;DHT22;45073;52.740;6.784;2023-04-03T11:12:33;11.50;60.30
59301;DHT22;45073;52.740;6.784;2023-04-03T11:15:02;11.60;58.30
59301;DHT22;45073;52.740;6.784;2023-04-03T11:17:38;11.70;59.30
59301;DHT22;45073;52.740;6.784;2023-04-03T11:20:18;11.90;59.00
59301;DHT22;45073;52.740;6.784;2023-04-03T11:22:50;12.00;59.30
59301;DHT22;45073;52.740;6.784;2023-04-03T11:25:22;12.10;59.20
59301;DHT22;45073;52.740;6.784;2023-04-03T11:28:05;12.10;58.20
59301;DHT22;45073;52.740;6.784;2023-04-03T11:31:12;12.20;58.00
59301;DHT22;45073;52.740;6.784;2023-04-03T11:34:07;12.40;56.70
59301;DHT22;45073;52.740;6.784;2023-04-03T11:36:45;12.40;56.70
59301;DHT22;45073;52.740;6.784;2023-04-03T11:39:21;12.50;57.00
59301;DHT22;45073;52.740;6.784;2023-04-03T11:41:48;12.60;55.60
59301;DHT22;45073;52.740;6.784;2023-04-03T11:46:58;12.80;55.10
59301;DHT22;45073;52.740;6.784;2023-04-03T11:50:24;12.90;56.70
59301;DHT22;45073;52.740;6.784;2023-04-03T12:16:30;14.10;51.50
59301;DHT22;45073;52.740;6.784;2023-04-03T12:24:27;14.60;52.00
59301;DHT22;45073;52.740;6.784;2023-04-03T12:43:02;15.00;48.20
59301;DHT22;45073;52.740;6.784;2023-04-03T12:46:03;15.10;48.90
59301;DHT22;45073;52.740;6.784;2023-04-03T12:48:30;15.20;48.30
59301;DHT22;45073;52.740;6.784;2023-04-03T12:50:58;15.20;48.80
59301;DHT22;45073;52.740;6.784;2023-04-03T12:53:31;15.30;47.90
59301;DHT22;45073;52.740;6.784;2023-04-03T12:56:28;15.30;47.00
59301;DHT22;45073;52.740;6.784;2023-04-03T12:58:56;15.60;48.20
59301;DHT22;45073;52.740;6.784;2023-04-03T13:01:37;15.70;48.00
59301;DHT22;45073;52.740;6.784;2023-04-03T13:04:03;15.70;47.30
59301;DHT22;45073;52.740;6.784;2023-04-03T13:06:43;15.70;47.50
59301;DHT22;45073;52.740;6.784;2023-04-03T13:11:50;16.10;46.90
59301;DHT22;45073;52.740;6.784;2023-04-03T13:14:22;16.30;46.60
59301;DHT22;45073;52.740;6.784;2023-04-03T13:16:56;16.40;45.70
59301;DHT22;45073;52.740;6.784;2023-04-03T13:19:24;16.70;45.90
59301;DHT22;45073;52.740;6.784;2023-04-03T13:22:07;16.80;45.00
59301;DHT22;45073;52.740;6.784;2023-04-03T13:24:37;17.00;44.80
59301;DHT22;45073;52.740;6.784;2023-04-03T13:27:04;16.90;43.80
59301;DHT22;45073;52.740;6.784;2023-04-03T13:29:34;16.90;43.80
59301;DHT22;45073;52.740;6.784;2023-04-03T13:32:01;17.10;44.50
59301;DHT22;45073;52.740;6.784;2023-04-03T13:34:42;17.40;44.90
59301;DHT22;45073;52.740;6.784;2023-04-03T13:39:45;17.80;43.40
59301;DHT22;45073;52.740;6.784;2023-04-03T13:44:41;18.20;43.20
59301;DHT22;45073;52.740;6.784;2023-04-03T13:49:39;18.70;43.80
59301;DHT22;45073;52.740;6.784;2023-04-03T13:54:59;20.60;41.20
59301;DHT22;45073;52.740;6.784;2023-04-03T13:57:26;21.70;39.60
59301;DHT22;45073;52.740;6.784;2023-04-03T13:59:52;22.30;38.00
59301;DHT22;45073;52.740;6.784;2023-04-03T14:02:22;22.40;37.70
59301;DHT22;45073;52.740;6.784;2023-04-03T14:04:53;22.20;37.80
59301;DHT22;45073;52.740;6.784;2023-04-03T14:07:22;21.70;38.20
59301;DHT22;45073;52.740;6.784;2023-04-03T14:09:49;21.30;38.20
59301;DHT22;45073;52.740;6.784;2023-04-03T14:12:24;20.90;37.90
59301;DHT22;45073;52.740;6.784;2023-04-03T14:14:50;20.80;39.20
59301;DHT22;45073;52.740;6.784;2023-04-03T14:17:19;20.80;40.70
59301;DHT22;45073;52.740;6.784;2023-04-03T14:19:45;20.80;40.20
59301;DHT22;45073;52.740;6.784;2023-04-03T14:22:24;20.80;39.30
59301;DHT22;45073;52.740;6.784;2023-04-03T14:24:51;20.60;39.00
59301;DHT22;45073;52.740;6.784;2023-04-03T14:27:23;20.50;39.90
59301;DHT22;45073;52.740;6.784;2023-04-03T14:29:52;20.40;39.00
59301;DHT22;45073;52.740;6.784;2023-04-03T14:32:20;20.40;39.40
59301;DHT22;45073;52.740;6.784;2023-04-03T14:34:47;20.30;39.10
59301;DHT22;45073;52.740;6.784;2023-04-03T14:37:17;20.30;38.80
59301;DHT22;45073;52.740;6.784;2023-04-03T14:39:44;20.20;37.60
59301;DHT22;45073;52.740;6.784;2023-04-03T14:42:16;20.30;38.60
59301;DHT22;45073;52.740;6.784;2023-04-03T14:44:42;20.30;39.10
59301;DHT22;45073;52.740;6.784;2023-04-03T14:47:12;20.30;38.70
59301;DHT22;45073;52.740;6.784;2023-04-03T14:49:39;20.40;38.30
59301;DHT22;45073;52.740;6.784;2023-04-03T14:52:06;20.50;37.80
59301;DHT22;45073;52.740;6.784;2023-04-03T14:54:31;20.50;38.10
59301;DHT22;45073;52.740;6.784;2023-04-03T14:56:59;20.50;38.20
59301;DHT22;45073;52.740;6.784;2023-04-03T14:59:26;20.50;38.10
59301;DHT22;45073;52.740;6.784;2023-04-03T15:01:53;20.50;37.30
59301;DHT22;45073;52.740;6.784;2023-04-03T15:04:20;20.30;37.10
59301;DHT22;45073;52.740;6.784;2023-04-03T15:06:47;20.10;37.40
59301;DHT22;45073;52.740;6.784;2023-04-03T15:09:20;20.00;36.50
59301;DHT22;45073;52.740;6.784;2023-04-03T15:11:48;20.10;37.40
59301;DHT22;45073;52.740;6.784;2023-04-03T15:14:13;20.10;37.50
59301;DHT22;45073;52.740;6.784;2023-04-03T15:16:39;20.00;38.20
59301;DHT22;45073;52.740;6.784;2023-04-03T15:19:05;20.00;37.90
59301;DHT22;45073;52.740;6.784;2023-04-03T15:21:30;20.00;37.90
59301;DHT22;45073;52.740;6.784;2023-04-03T15:23:56;20.10;37.90
59301;DHT22;45073;52.740;6.784;2023-04-03T15:26:22;20.00;37.40
59301;DHT22;45073;52.740;6.784;2023-04-03T15:28:47;19.80;36.80
59301;DHT22;45073;52.740;6.784;2023-04-03T15:31:13;19.70;37.10
59301;DHT22;45073;52.740;6.784;2023-04-03T15:33:39;19.70;37.50
59301;DHT22;45073;52.740;6.784;2023-04-03T15:36:05;19.60;37.80
59301;DHT22;45073;52.740;6.784;2023-04-03T15:38:30;19.50;38.00
59301;DHT22;45073;52.740;6.784;2023-04-03T15:40:56;19.40;38.10
59301;DHT22;45073;52.740;6.784;2023-04-03T15:43:22;19.30;38.00
59301;DHT22;45073;52.740;6.784;2023-04-03T15:45:48;19.20;38.30
59301;DHT22;45073;52.740;6.784;2023-04-03T15:48:15;18.80;37.90
59301;DHT22;45073;52.740;6.784;2023-04-03T15:50:41;18.50;37.70
59301;DHT22;45073;52.740;6.784;2023-04-03T15:53:07;18.40;37.80
59301;DHT22;45073;52.740;6.784;2023-04-03T15:55:35;18.10;38.30
59301;DHT22;45073;52.740;6.784;2023-04-03T15:58:01;17.90;38.80
59301;DHT22;45073;52.740;6.784;2023-04-03T16:00:29;17.70;39.70
59301;DHT22;45073;52.740;6.784;2023-04-03T16:03:05;17.70;39.70
59301;DHT22;45073;52.740;6.784;2023-04-03T16:05:31;17.50;39.40
59301;DHT22;45073;52.740;6.784;2023-04-03T16:07:59;17.30;40.40
59301;DHT22;45073;52.740;6.784;2023-04-03T16:10:25;17.20;40.10
59301;DHT22;45073;52.740;6.784;2023-04-03T16:12:51;17.10;40.10
59301;DHT22;45073;52.740;6.784;2023-04-03T16:15:17;17.00;40.60
59301;DHT22;45073;52.740;6.784;2023-04-03T16:17:43;17.00;41.20
59301;DHT22;45073;52.740;6.784;2023-04-03T16:20:11;16.80;41.20
59301;DHT22;45073;52.740;6.784;2023-04-03T16:22:38;16.60;40.80
59301;DHT22;45073;52.740;6.784;2023-04-03T16:25:05;16.50;41.30
59301;DHT22;45073;52.740;6.784;2023-04-03T16:27:31;16.40;41.20
59301;DHT22;45073;52.740;6.784;2023-04-03T16:29:57;16.20;41.00
59301;DHT22;45073;52.740;6.784;2023-04-03T16:32:26;16.00;41.10
59301;DHT22;45073;52.740;6.784;2023-04-03T16:34:53;15.90;41.30
59301;DHT22;45073;52.740;6.784;2023-04-03T16:37:18;15.80;41.80
59301;DHT22;45073;52.740;6.784;2023-04-03T16:39:44;15.70;41.80
59301;DHT22;45073;52.740;6.784;2023-04-03T16:42:10;15.50;42.40
59301;DHT22;45073;52.740;6.784;2023-04-03T16:44:42;15.30;42.60
59301;DHT22;45073;52.740;6.784;2023-04-03T16:47:08;15.20;42.60
59301;DHT22;45073;52.740;6.784;2023-04-03T16:49:34;15.10;42.90
59301;DHT22;45073;52.740;6.784;2023-04-03T16:52:02;15.00;42.90
59301;DHT22;45073;52.740;6.784;2023-04-03T16:54:28;15.00;42.80
59301;DHT22;45073;52.740;6.784;2023-04-03T16:56:54;14.80;43.30
59301;DHT22;45073;52.740;6.784;2023-04-03T16:59:19;14.80;43.80
59301;DHT22;45073;52.740;6.784;2023-04-03T17:01:45;14.60;43.60
59301;DHT22;45073;52.740;6.784;2023-04-03T17:04:11;14.50;43.80
59301;DHT22;45073;52.740;6.784;2023-04-03T17:06:38;14.20;43.80
59301;DHT22;45073;52.740;6.784;2023-04-03T17:09:05;14.20;44.30
59301;DHT22;45073;52.740;6.784;2023-04-03T17:11:31;14.00;44.40
59301;DHT22;45073;52.740;6.784;2023-04-03T17:13:57;13.90;44.60
59301;DHT22;45073;52.740;6.784;2023-04-03T17:16:23;13.80;44.80
59301;DHT22;45073;52.740;6.784;2023-04-03T17:18:49;13.80;44.90